createdAt,value
2022-09-07T00:00:41.542Z,87.20
2022-09-07T00:01:41.528Z,86.59
2022-09-07T00:02:41.691Z,87.10
2022-09-07T00:03:41.506Z,87.60
2022-09-07T00:04:41.545Z,87.45
2022-09-07T00:05:41.487Z,87.81
2022-09-07T00:06:41.554Z,88.11
2022-09-07T00:07:41.475Z,88.25
2022-09-07T00:08:41.451Z,86.73
2022-09-07T00:09:41.436Z,87.60
2022-09-07T00:10:41.432Z,87.54
2022-09-07T00:11:41.509Z,86.53
2022-09-07T00:12:41.406Z,87.14
2022-09-07T00:13:41.422Z,87.65
2022-09-07T00:14:41.400Z,87.14
2022-09-07T00:15:41.371Z,87.14
2022-09-07T00:16:41.438Z,86.22
2022-09-07T00:17:41.351Z,87.04
2022-09-07T00:18:45.823Z,87.14
2022-09-07T00:19:42.337Z,85.72
2022-09-07T00:20:41.318Z,86.53
2022-09-07T00:21:41.456Z,87.48
2022-09-07T00:22:41.292Z,87.14
2022-09-07T00:23:41.311Z,87.14
2022-09-07T00:24:41.340Z,87.48
2022-09-07T00:25:41.273Z,87.04
2022-09-07T00:26:41.264Z,86.63
2022-09-07T00:27:41.238Z,86.53
2022-09-07T00:28:41.232Z,87.45
2022-09-07T00:29:41.220Z,87.24
2022-09-07T00:30:41.208Z,88.09
2022-09-07T00:31:41.281Z,87.85
2022-09-07T00:32:41.197Z,87.54
2022-09-07T00:33:41.176Z,86.02
2022-09-07T00:34:41.167Z,86.53
2022-09-07T00:35:41.148Z,86.83
2022-09-07T00:36:41.140Z,86.94
2022-09-07T00:37:41.143Z,85.21
2022-09-07T00:38:41.130Z,86.43
2022-09-07T00:39:41.142Z,86.53
2022-09-07T00:40:41.130Z,86.43
2022-09-07T00:41:41.083Z,86.53
2022-09-07T00:42:41.077Z,86.83
2022-09-07T00:43:41.060Z,87.14
2022-09-07T00:44:41.058Z,86.43
2022-09-07T00:45:41.042Z,87.45
2022-09-07T00:46:41.101Z,87.65
2022-09-07T00:47:41.016Z,87.65
2022-09-07T00:48:41.005Z,87.18
2022-09-07T00:49:41.031Z,87.24
2022-09-07T00:50:40.984Z,87.65
2022-09-07T00:51:40.976Z,87.85
2022-09-07T00:52:41.020Z,88.09
2022-09-07T00:53:40.950Z,88.20
2022-09-07T00:54:40.945Z,87.99
2022-09-07T00:55:40.931Z,87.99
2022-09-07T00:56:41.031Z,87.89
2022-09-07T00:57:40.961Z,87.18
2022-09-07T00:58:40.948Z,87.18
2022-09-07T00:59:40.938Z,87.18
2022-09-07T01:00:40.941Z,86.98
2022-09-07T01:01:41.013Z,87.79
2022-09-07T01:02:41.036Z,87.79
2022-09-07T01:03:40.837Z,86.57
2022-09-07T01:04:40.831Z,86.37
2022-09-07T01:05:41.000Z,86.27
2022-09-07T01:06:40.813Z,86.53
2022-09-07T01:07:40.796Z,86.57
2022-09-07T01:08:40.782Z,87.08
2022-09-07T01:09:40.772Z,86.88
2022-09-07T01:10:40.767Z,85.76
2022-09-07T01:11:40.770Z,86.16
2022-09-07T01:12:40.740Z,85.42
2022-09-07T01:13:40.732Z,85.76
2022-09-07T01:14:40.755Z,85.36
2022-09-07T01:15:40.794Z,85.42
2022-09-07T01:16:40.708Z,85.42
2022-09-07T01:17:40.687Z,85.21
2022-09-07T01:18:40.728Z,85.21
2022-09-07T01:19:40.663Z,85.52
2022-09-07T01:20:40.745Z,86.63
2022-09-07T01:21:40.664Z,86.73
2022-09-07T01:22:40.645Z,86.07
2022-09-07T01:23:40.829Z,85.52
2022-09-07T01:24:40.616Z,86.02
2022-09-07T01:25:40.629Z,86.33
2022-09-07T01:26:40.591Z,86.63
2022-09-07T01:27:40.588Z,86.57
2022-09-07T01:28:40.647Z,85.96
2022-09-07T01:29:40.549Z,85.86
2022-09-07T01:30:40.545Z,85.25
2022-09-07T01:31:40.531Z,84.70
2022-09-07T01:32:40.516Z,84.41
2022-09-07T01:33:40.515Z,83.39
2022-09-07T01:34:40.506Z,85.21
2022-09-07T01:35:40.513Z,85.01
2022-09-07T01:36:40.481Z,84.41
2022-09-07T01:37:40.461Z,84.10
2022-09-07T01:38:40.454Z,83.80
2022-09-07T01:39:40.484Z,84.00
2022-09-07T01:40:40.443Z,84.41
2022-09-07T01:41:40.423Z,83.55
2022-09-07T01:42:40.416Z,83.69
2022-09-07T01:43:40.399Z,84.91
2022-09-07T01:44:40.396Z,83.39
2022-09-07T01:45:40.479Z,83.39
2022-09-07T01:46:40.439Z,83.29
2022-09-07T01:47:40.355Z,84.91
2022-09-07T01:48:40.341Z,85.31
2022-09-07T01:49:40.335Z,85.01
2022-09-07T01:50:40.336Z,85.93
2022-09-07T01:51:40.366Z,85.93
2022-09-07T01:52:40.304Z,85.31
2022-09-07T01:53:40.288Z,85.82
2022-09-07T01:54:40.278Z,86.02
2022-09-07T01:55:40.276Z,86.53
2022-09-07T01:56:40.256Z,85.76
2022-09-07T01:57:40.245Z,86.13
2022-09-07T01:58:40.293Z,86.43
2022-09-07T01:59:40.225Z,86.73
2022-09-07T02:00:40.209Z,86.68
2022-09-07T02:01:40.273Z,86.77
2022-09-07T02:02:40.271Z,86.16
2022-09-07T02:03:40.178Z,86.37
2022-09-07T02:04:40.168Z,87.48
2022-09-07T02:05:40.161Z,87.32
2022-09-07T02:06:40.231Z,87.28
2022-09-07T02:07:40.147Z,87.52
2022-09-07T02:08:40.128Z,88.54
2022-09-07T02:09:40.113Z,88.80
2022-09-07T02:10:40.107Z,88.34
2022-09-07T02:11:40.093Z,88.64
2022-09-07T02:12:40.197Z,88.03
2022-09-07T02:13:40.121Z,88.44
2022-09-07T02:14:40.061Z,88.23
2022-09-07T02:15:40.130Z,87.02
2022-09-07T02:16:40.055Z,86.37
2022-09-07T02:17:40.025Z,86.82
2022-09-07T02:18:40.031Z,86.82
2022-09-07T02:19:40.030Z,86.31
2022-09-07T02:20:39.995Z,86.71
2022-09-07T02:21:39.990Z,87.32
2022-09-07T02:22:39.983Z,87.26
2022-09-07T02:23:39.961Z,87.37
2022-09-07T02:24:39.944Z,87.37
2022-09-07T02:25:39.946Z,87.26
2022-09-07T02:26:39.944Z,87.37
2022-09-07T02:27:39.939Z,86.86
2022-09-07T02:28:39.906Z,87.26
2022-09-07T02:29:39.910Z,87.37
2022-09-07T02:30:39.939Z,87.67
2022-09-07T02:31:39.886Z,87.37
2022-09-07T02:32:39.855Z,87.46
2022-09-07T02:33:39.869Z,87.57
2022-09-07T02:34:39.841Z,87.37
2022-09-07T02:35:39.823Z,87.77
2022-09-07T02:36:39.814Z,86.65
2022-09-07T02:37:39.813Z,87.37
2022-09-07T02:38:39.790Z,87.77
2022-09-07T02:39:39.869Z,87.97
2022-09-07T02:40:39.776Z,87.46
2022-09-07T02:41:39.762Z,87.46
2022-09-07T02:42:39.746Z,87.67
2022-09-07T02:43:39.747Z,87.57
2022-09-07T02:44:39.854Z,88.28
2022-09-07T02:45:39.720Z,87.57
2022-09-07T02:46:39.799Z,88.38
2022-09-07T02:47:39.695Z,87.97
2022-09-07T02:48:39.681Z,88.48
2022-09-07T02:49:39.690Z,87.97
2022-09-07T02:50:39.741Z,87.26
2022-09-07T02:51:39.649Z,87.16
2022-09-07T02:52:39.637Z,87.22
2022-09-07T02:53:39.627Z,87.57
2022-09-07T02:54:39.614Z,87.67
2022-09-07T02:55:39.611Z,87.57
2022-09-07T02:56:39.605Z,87.57
2022-09-07T02:57:39.669Z,88.07
2022-09-07T02:58:39.578Z,87.57
2022-09-07T02:59:39.572Z,87.57
2022-09-07T03:00:39.547Z,87.26
2022-09-07T03:01:39.678Z,87.37
2022-09-07T03:02:39.627Z,87.67
2022-09-07T03:03:39.519Z,87.46
2022-09-07T03:04:39.503Z,88.12
2022-09-07T03:05:39.490Z,88.42
2022-09-07T03:06:39.486Z,88.32
2022-09-07T03:07:43.951Z,88.82
2022-09-07T03:08:39.456Z,88.52
2022-09-07T03:09:39.451Z,88.01
2022-09-07T03:10:39.434Z,87.92
2022-09-07T03:11:39.426Z,88.16
2022-09-07T03:12:39.423Z,88.52
2022-09-07T03:13:39.469Z,89.28
2022-09-07T03:14:39.393Z,89.42
2022-09-07T03:15:39.418Z,89.42
2022-09-07T03:16:39.421Z,88.30
2022-09-07T03:17:39.361Z,88.36
2022-09-07T03:18:39.348Z,88.46
2022-09-07T03:19:39.347Z,88.16
2022-09-07T03:20:39.378Z,88.06
2022-09-07T03:21:39.317Z,88.46
2022-09-07T03:22:39.334Z,88.26
2022-09-07T03:23:39.294Z,88.16
2022-09-07T03:24:39.364Z,88.56
2022-09-07T03:25:39.290Z,88.26
2022-09-07T03:26:39.261Z,88.46
2022-09-07T03:27:39.259Z,88.20
2022-09-07T03:28:39.237Z,88.30
2022-09-07T03:29:41.978Z,87.75
2022-09-07T03:30:39.271Z,87.29
2022-09-07T03:31:39.207Z,87.34
2022-09-07T03:32:39.274Z,87.24
2022-09-07T03:33:39.180Z,87.14
2022-09-07T03:34:39.171Z,87.85
2022-09-07T03:35:39.159Z,87.45
2022-09-07T03:36:39.148Z,87.24
2022-09-07T03:37:39.143Z,86.98
2022-09-07T03:38:39.215Z,86.98
2022-09-07T03:39:39.176Z,86.88
2022-09-07T03:40:39.102Z,87.99
2022-09-07T03:41:39.097Z,86.98
2022-09-07T03:42:39.082Z,87.55
2022-09-07T03:43:39.081Z,87.18
2022-09-07T03:44:39.105Z,87.85
2022-09-07T03:45:39.101Z,87.38
2022-09-07T03:46:39.050Z,87.59
2022-09-07T03:47:39.089Z,87.69
2022-09-07T03:48:39.014Z,87.65
2022-09-07T03:49:39.013Z,87.59
2022-09-07T03:50:38.995Z,88.40
2022-09-07T03:51:39.065Z,87.99
2022-09-07T03:52:38.970Z,88.10
2022-09-07T03:53:38.976Z,88.26
2022-09-07T03:54:39.715Z,87.89
2022-09-07T03:55:38.936Z,87.89
2022-09-07T03:56:38.929Z,88.20
2022-09-07T03:57:38.966Z,88.50
2022-09-07T03:58:38.904Z,88.20
2022-09-07T03:59:38.970Z,88.20
2022-09-07T04:00:38.886Z,87.69
2022-09-07T04:01:38.919Z,87.79
2022-09-07T04:02:38.990Z,87.38
2022-09-07T04:03:38.847Z,88.50
2022-09-07T04:04:38.840Z,88.10
2022-09-07T04:05:38.839Z,88.50
2022-09-07T04:06:38.901Z,88.30
2022-09-07T04:07:38.804Z,87.84
2022-09-07T04:08:38.792Z,87.79
2022-09-07T04:09:38.780Z,87.89
2022-09-07T04:10:38.787Z,88.40
2022-09-07T04:11:38.775Z,87.59
2022-09-07T04:12:38.748Z,87.49
2022-09-07T04:13:38.808Z,87.29
2022-09-07T04:14:38.725Z,86.98
2022-09-07T04:15:38.720Z,87.79
2022-09-07T04:16:38.738Z,87.69
2022-09-07T04:17:38.701Z,87.59
2022-09-07T04:18:38.680Z,87.29
2022-09-07T04:19:38.721Z,87.49
2022-09-07T04:20:38.659Z,87.89
2022-09-07T04:21:38.652Z,87.89
2022-09-07T04:22:38.643Z,88.30
2022-09-07T04:23:38.637Z,88.54
2022-09-07T04:24:38.622Z,88.50
2022-09-07T04:25:38.682Z,88.75
2022-09-07T04:26:38.593Z,88.95
2022-09-07T04:27:38.582Z,88.54
2022-09-07T04:28:38.573Z,88.95
2022-09-07T04:29:38.575Z,89.05
2022-09-07T04:30:38.589Z,88.65
2022-09-07T04:31:38.540Z,89.26
2022-09-07T04:32:38.529Z,89.76
2022-09-07T04:33:38.522Z,88.44
2022-09-07T04:34:38.572Z,88.54
2022-09-07T04:35:38.507Z,88.44
2022-09-07T04:36:38.484Z,88.13
2022-09-07T04:37:38.474Z,88.54
2022-09-07T04:38:38.492Z,88.65
2022-09-07T04:39:38.502Z,88.65
2022-09-07T04:40:38.440Z,88.95
2022-09-07T04:41:38.437Z,88.85
2022-09-07T04:42:38.418Z,89.05
2022-09-07T04:43:38.480Z,89.30
2022-09-07T04:44:38.401Z,88.48
2022-09-07T04:45:38.419Z,88.13
2022-09-07T04:46:38.426Z,88.24
2022-09-07T04:47:38.384Z,88.34
2022-09-07T04:48:38.350Z,88.34
2022-09-07T04:49:38.343Z,88.13
2022-09-07T04:50:38.413Z,88.44
2022-09-07T04:51:38.321Z,88.44
2022-09-07T04:52:38.308Z,88.24
2022-09-07T04:53:38.307Z,88.13
2022-09-07T04:54:38.286Z,87.84
2022-09-07T04:55:38.291Z,88.24
2022-09-07T04:56:38.266Z,88.44
2022-09-07T04:57:38.250Z,88.65
2022-09-07T04:58:38.251Z,88.40
2022-09-07T04:59:38.297Z,88.65
2022-09-07T05:00:38.335Z,88.34
2022-09-07T05:01:38.438Z,88.85
2022-09-07T05:02:38.274Z,88.95
2022-09-07T05:03:38.190Z,89.26
2022-09-07T05:04:38.173Z,88.95
2022-09-07T05:05:38.173Z,89.56
2022-09-07T05:06:38.223Z,89.72
2022-09-07T05:07:38.156Z,89.76
2022-09-07T05:08:38.133Z,88.40
2022-09-07T05:09:38.117Z,89.01
2022-09-07T05:10:38.121Z,87.69
2022-09-07T05:11:38.101Z,87.69
2022-09-07T05:12:38.087Z,87.45
2022-09-07T05:13:38.090Z,87.95
2022-09-07T05:14:38.179Z,87.95
2022-09-07T05:15:38.055Z,88.26
2022-09-07T05:16:38.126Z,87.75
2022-09-07T05:17:38.034Z,87.10
2022-09-07T05:18:38.136Z,87.10
2022-09-07T05:19:38.025Z,87.61
2022-09-07T05:20:37.999Z,87.20
2022-09-07T05:21:38.024Z,87.81
2022-09-07T05:22:37.975Z,87.81
2022-09-07T05:23:37.967Z,87.81
2022-09-07T05:24:37.965Z,88.62
2022-09-07T05:25:37.946Z,88.82
2022-09-07T05:26:37.930Z,88.21
2022-09-07T05:27:37.922Z,88.42
2022-09-07T05:28:37.910Z,88.12
2022-09-07T05:31:38.876Z,87.34
2022-09-07T05:32:37.867Z,86.63
2022-09-07T05:34:38.857Z,87.00
2022-09-07T05:35:37.834Z,87.04
2022-09-07T05:36:37.820Z,87.40
2022-09-07T05:37:37.903Z,87.40
2022-09-07T05:38:37.801Z,87.85
2022-09-07T05:39:37.829Z,87.92
2022-09-07T05:40:40.685Z,87.61
2022-09-07T05:41:37.764Z,86.90
2022-09-07T05:42:37.756Z,85.94
2022-09-07T05:44:46.303Z,84.85
2022-09-07T05:45:38.802Z,83.35
2022-09-07T05:46:37.709Z,82.10
2022-09-07T05:47:37.755Z,81.45
2022-09-07T05:48:37.691Z,81.45
2022-09-07T05:49:37.708Z,81.41
2022-09-07T05:50:37.674Z,79.05
2022-09-07T05:51:37.654Z,79.66
2022-09-07T05:52:37.646Z,78.81
2022-09-07T05:53:37.633Z,78.85
2022-09-07T05:54:37.689Z,78.24
2022-09-07T05:55:37.629Z,76.89
2022-09-07T05:56:37.601Z,77.60
2022-09-07T05:57:37.598Z,76.32
2022-09-07T05:58:37.577Z,76.79
2022-09-07T05:59:37.565Z,77.50
2022-09-07T06:00:37.557Z,75.64
2022-09-07T06:01:37.658Z,76.39
2022-09-07T06:02:39.807Z,77.09
2022-09-07T06:03:37.538Z,76.86
2022-09-07T06:04:37.511Z,76.21
2022-09-07T06:05:37.506Z,77.32
2022-09-07T06:06:37.495Z,76.82
2022-09-07T06:07:37.500Z,77.79
2022-09-07T06:08:37.525Z,76.34
2022-09-07T06:10:45.720Z,75.67
2022-09-07T06:11:38.448Z,77.04
2022-09-07T06:12:37.424Z,75.43
2022-09-07T06:13:37.468Z,75.10
2022-09-07T06:14:37.423Z,74.59
2022-09-07T06:15:37.392Z,73.88
2022-09-07T06:16:37.421Z,75.54
2022-09-07T06:17:37.375Z,76.34
2022-09-07T06:18:37.359Z,75.54
2022-09-07T06:19:37.345Z,75.87
2022-09-07T06:20:37.425Z,79.04
2022-09-07T06:21:37.406Z,80.05
2022-09-07T06:22:37.383Z,80.15
2022-09-07T06:23:37.306Z,79.54
2022-09-07T06:24:37.294Z,78.50
2022-09-07T06:25:37.325Z,78.59
2022-09-07T06:26:37.321Z,79.77
2022-09-07T06:27:37.310Z,78.32
2022-09-07T06:28:37.306Z,77.11
2022-09-07T06:29:37.242Z,78.12
2022-09-07T06:30:37.226Z,79.69
2022-09-07T06:32:45.734Z,78.52
2022-09-07T06:33:38.204Z,77.98
2022-09-07T06:34:37.231Z,76.84
2022-09-07T06:35:37.281Z,76.47
2022-09-07T06:36:37.158Z,75.96
2022-09-07T06:37:37.158Z,76.97
2022-09-07T06:38:37.146Z,77.17
2022-09-07T06:39:37.157Z,75.63
2022-09-07T06:40:37.114Z,75.46
2022-09-07T06:42:38.091Z,74.26
2022-09-07T06:43:37.130Z,74.90
2022-09-07T06:44:37.129Z,73.38
2022-09-07T06:45:37.129Z,73.58
2022-09-07T06:47:38.045Z,73.65
2022-09-07T06:48:38.288Z,73.05
2022-09-07T06:49:37.084Z,73.35
2022-09-07T06:50:37.002Z,76.81
2022-09-07T06:51:36.988Z,78.16
2022-09-07T06:53:39.560Z,78.80
2022-09-07T06:55:37.947Z,77.11
2022-09-07T06:56:37.003Z,76.97
2022-09-07T06:57:37.034Z,78.69
2022-09-07T06:58:39.213Z,76.47
2022-09-07T06:59:37.911Z,78.28
2022-09-07T07:00:36.986Z,76.67
2022-09-07T07:01:36.880Z,77.82
2022-09-07T07:02:36.865Z,78.59
2022-09-07T07:03:36.947Z,76.57
2022-09-07T07:04:40.860Z,76.61
2022-09-07T07:05:36.886Z,77.01
2022-09-07T07:06:36.872Z,76.40
2022-09-07T07:07:36.810Z,75.67
2022-09-07T07:08:36.800Z,75.73
2022-09-07T07:09:36.817Z,76.74
2022-09-07T07:10:36.780Z,76.10
2022-09-07T07:11:36.778Z,76.70
2022-09-07T07:13:36.747Z,75.93
2022-09-07T07:14:39.634Z,77.38
2022-09-07T07:15:37.903Z,76.97
2022-09-07T07:16:36.771Z,80.13
2022-09-07T07:17:36.701Z,78.49
2022-09-07T07:18:37.159Z,79.53
2022-09-07T07:19:36.764Z,79.23
2022-09-07T07:20:36.667Z,79.53
2022-09-07T07:22:03.123Z,77.42
2022-09-07T07:22:53.013Z,78.46
2022-09-07T07:23:37.631Z,78.59
2022-09-07T07:24:36.705Z,80.72
2022-09-07T07:25:36.610Z,80.96
2022-09-07T07:26:36.598Z,81.20
2022-09-07T07:27:36.603Z,80.08
2022-09-07T07:29:37.623Z,80.69
2022-09-07T07:30:36.637Z,81.36
2022-09-07T07:31:36.593Z,81.26
2022-09-07T07:32:36.537Z,81.67
2022-09-07T07:33:36.590Z,81.16
2022-09-07T07:34:36.602Z,82.67
2022-09-07T07:35:36.499Z,83.28
2022-09-07T07:36:36.490Z,82.07
2022-09-07T07:37:36.538Z,81.36
2022-09-07T07:40:39.125Z,82.84
2022-09-07T07:42:37.428Z,81.82
2022-09-07T07:43:36.413Z,80.62
2022-09-07T07:44:36.398Z,83.24
2022-09-07T07:46:06.438Z,83.24
2022-09-07T07:46:37.552Z,82.33
2022-09-07T07:47:36.368Z,83.74
2022-09-07T07:48:36.355Z,84.05
2022-09-07T07:49:36.344Z,83.14
2022-09-07T07:50:36.370Z,82.53
2022-09-07T07:53:41.202Z,82.53
2022-09-07T07:53:41.987Z,81.82
2022-09-07T07:54:37.296Z,82.47
2022-09-07T07:55:44.191Z,83.18
2022-09-07T07:56:37.277Z,81.05
2022-09-07T07:57:36.317Z,82.41
2022-09-07T07:58:36.242Z,82.51
2022-09-07T07:59:36.235Z,82.04
2022-09-07T08:00:53.066Z,83.52
2022-09-07T08:01:37.349Z,83.82
2022-09-07T08:02:36.307Z,83.07
2022-09-07T08:03:36.241Z,81.10
2022-09-07T08:04:36.175Z,82.98
2022-09-07T08:05:36.242Z,82.33
2022-09-07T08:06:36.176Z,81.73
2022-09-07T08:07:36.168Z,81.62
2022-09-07T08:08:36.133Z,80.98
2022-09-07T08:09:36.120Z,79.97
2022-09-07T08:10:36.110Z,78.79
2022-09-07T08:11:36.105Z,78.45
2022-09-07T08:12:36.103Z,76.60
2022-09-07T08:13:36.076Z,75.86
2022-09-07T08:14:36.064Z,77.23
2022-09-07T08:15:36.055Z,76.03
2022-09-07T08:16:36.154Z,76.76
2022-09-07T08:17:36.032Z,75.76
2022-09-07T08:18:36.108Z,76.46
2022-09-07T08:19:36.067Z,78.94
2022-09-07T08:20:36.005Z,76.12
2022-09-07T08:21:35.992Z,78.17
2022-09-07T08:22:36.032Z,77.70
2022-09-07T08:23:35.963Z,76.54
2022-09-07T08:24:35.975Z,76.57
2022-09-07T08:25:35.993Z,78.22
2022-09-07T08:26:35.940Z,76.81
2022-09-07T08:27:35.920Z,76.67
2022-09-07T08:28:35.982Z,77.11
2022-09-07T08:29:35.916Z,79.73
2022-09-07T08:30:35.889Z,78.59
2022-09-07T08:31:35.927Z,78.45
2022-09-07T08:32:35.869Z,78.51
2022-09-07T08:33:35.860Z,76.90
2022-09-07T08:34:35.901Z,77.07
2022-09-07T08:35:35.854Z,75.39
2022-09-07T08:36:35.827Z,75.19
2022-09-07T08:37:35.867Z,76.60
2022-09-07T08:38:35.824Z,76.60
2022-09-07T08:39:35.890Z,75.79
2022-09-07T08:40:35.833Z,77.70
2022-09-07T08:41:35.783Z,78.17
2022-09-07T08:42:35.757Z,75.76
2022-09-07T08:43:35.797Z,76.90
2022-09-07T08:44:35.738Z,76.90
2022-09-07T08:45:35.728Z,77.24
2022-09-07T08:46:35.794Z,77.20
2022-09-07T08:47:35.717Z,78.38
2022-09-07T08:48:35.691Z,77.17
2022-09-07T08:49:35.734Z,76.10
2022-09-07T08:50:35.781Z,76.50
2022-09-07T08:51:35.662Z,79.62
2022-09-07T08:52:35.651Z,78.67
2022-09-07T08:53:35.642Z,75.22
2022-09-07T08:54:35.658Z,78.20
2022-09-07T08:55:35.619Z,74.78
2022-09-07T08:56:35.621Z,75.45
2022-09-07T08:57:35.597Z,75.15
2022-09-07T08:58:50.672Z,74.95
2022-09-07T08:59:36.571Z,72.67
2022-09-07T09:00:35.578Z,72.97
2022-09-07T09:01:35.948Z,73.81
2022-09-07T09:02:42.209Z,73.11
2022-09-07T09:05:16.291Z,74.98
2022-09-07T09:05:36.615Z,75.35
2022-09-07T09:06:11.561Z,74.28
2022-09-07T09:06:35.709Z,74.98
2022-09-07T09:07:35.546Z,75.79
2022-09-07T09:08:35.477Z,74.11
2022-09-07T09:09:35.471Z,74.62
2022-09-07T09:10:35.483Z,75.72
2022-09-07T09:11:35.456Z,74.68
2022-09-07T09:12:37.721Z,76.29
2022-09-07T09:13:35.503Z,74.41
2022-09-07T09:14:35.419Z,74.89
2022-09-07T09:15:35.459Z,76.06
2022-09-07T09:16:35.401Z,76.76
2022-09-07T09:17:35.430Z,75.59
2022-09-07T09:18:35.370Z,77.14
2022-09-07T09:19:35.367Z,76.64
2022-09-07T09:20:35.345Z,77.84
2022-09-07T09:21:35.340Z,78.35
2022-09-07T09:22:35.405Z,79.16
2022-09-07T09:23:35.319Z,78.55
2022-09-07T09:24:35.321Z,78.85
2022-09-07T09:25:35.288Z,77.55
2022-09-07T09:26:35.317Z,79.36
2022-09-07T09:27:35.276Z,78.19
2022-09-07T09:28:35.531Z,78.79
2022-09-07T09:29:35.248Z,79.80
2022-09-07T09:30:35.245Z,79.90
2022-09-07T09:31:35.355Z,79.69
2022-09-07T09:32:35.219Z,79.60
2022-09-07T09:33:35.250Z,79.29
2022-09-07T09:34:35.292Z,79.90
2022-09-07T09:35:35.181Z,80.00
2022-09-07T09:36:35.170Z,79.66
2022-09-07T09:37:35.163Z,76.27
2022-09-07T09:38:35.146Z,76.31
2022-09-07T09:39:35.267Z,76.71
2022-09-07T09:40:35.126Z,77.25
2022-09-07T09:41:35.121Z,79.93
2022-09-07T09:42:35.176Z,81.38
2022-09-07T09:43:35.146Z,80.44
2022-09-07T09:44:35.102Z,79.43
2022-09-07T09:46:36.164Z,80.80
2022-09-07T09:47:35.104Z,79.05
2022-09-07T09:48:35.097Z,78.69
2022-09-07T09:49:35.027Z,79.05
2022-09-07T09:52:44.908Z,75.86
2022-09-07T09:53:35.990Z,75.66
2022-09-07T09:54:34.975Z,76.43
2022-09-07T09:55:36.278Z,76.79
2022-09-07T09:56:34.951Z,77.70
2022-09-07T09:57:34.942Z,75.89
2022-09-07T10:00:10.316Z,76.45
2022-09-07T10:00:36.589Z,75.55
2022-09-07T10:01:35.959Z,75.99
2022-09-07T10:04:35.860Z,75.56
2022-09-07T10:05:34.863Z,76.97
2022-09-07T10:06:34.843Z,78.31
2022-09-07T10:07:34.830Z,77.27
2022-09-07T10:08:34.901Z,75.46
2022-09-07T10:09:37.997Z,76.16
2022-09-07T10:10:34.799Z,76.16
2022-09-07T10:12:35.836Z,76.46
2022-09-07T10:13:34.768Z,77.87
2022-09-07T10:14:34.779Z,78.07
2022-09-07T10:15:39.266Z,77.97
2022-09-07T10:16:35.734Z,78.07
2022-09-07T10:17:34.720Z,78.07
2022-09-07T10:18:34.712Z,79.48
2022-09-07T10:19:34.704Z,78.27
2022-09-07T10:20:34.782Z,79.08
2022-09-07T10:21:34.683Z,79.18
2022-09-07T10:22:34.676Z,79.79
2022-09-07T10:23:34.661Z,80.08
2022-09-07T10:24:34.643Z,79.79
2022-09-07T10:25:34.636Z,79.92
2022-09-07T10:26:34.637Z,78.35
2022-09-07T10:27:34.669Z,79.76
2022-09-07T10:29:36.067Z,79.66
2022-09-07T10:30:34.627Z,79.66
2022-09-07T10:31:34.657Z,79.69
2022-09-07T10:32:34.563Z,80.00
2022-09-07T10:33:34.550Z,79.39
2022-09-07T10:34:34.536Z,81.10
2022-09-07T10:35:34.582Z,80.80
2022-09-07T10:36:34.899Z,81.21
2022-09-07T10:37:34.501Z,81.67
2022-09-07T10:38:34.493Z,80.77
2022-09-07T10:39:34.727Z,80.66
2022-09-07T10:40:34.480Z,81.10
2022-09-07T10:41:34.461Z,80.97
2022-09-07T10:42:34.517Z,79.19
2022-09-07T10:43:34.438Z,80.50
2022-09-07T10:44:34.429Z,81.47
2022-09-07T10:45:34.423Z,80.80
2022-09-07T10:47:35.461Z,80.50
2022-09-07T10:48:34.384Z,81.91
2022-09-07T10:49:34.385Z,82.31
2022-09-07T10:50:34.452Z,82.11
2022-09-07T10:51:34.352Z,81.95
2022-09-07T10:52:34.340Z,82.35
2022-09-07T10:53:41.386Z,81.95
2022-09-07T10:54:35.753Z,81.79
2022-09-07T10:55:34.310Z,80.92
2022-09-07T10:56:34.353Z,81.52
2022-09-07T10:57:34.286Z,80.72
2022-09-07T11:00:35.271Z,81.05
2022-09-07T11:01:34.334Z,80.62
2022-09-07T11:02:34.309Z,80.96
2022-09-07T11:03:34.510Z,80.96
2022-09-07T11:04:34.216Z,81.56
2022-09-07T11:05:38.180Z,83.44
2022-09-07T11:06:34.187Z,83.64
2022-09-07T11:07:34.187Z,81.73
2022-09-07T11:09:15.186Z,81.05
2022-09-07T11:09:35.150Z,82.87
2022-09-07T11:10:34.217Z,83.04
2022-09-07T11:12:04.401Z,84.35
2022-09-07T11:12:35.135Z,84.69
2022-09-07T11:13:49.493Z,84.25
2022-09-07T11:14:35.096Z,82.84
2022-09-07T11:15:34.156Z,82.64
2022-09-07T11:17:35.068Z,83.04
2022-09-07T11:18:34.087Z,83.24
2022-09-07T11:19:36.265Z,83.18
2022-09-07T11:20:34.033Z,83.64
2022-09-07T11:22:01.884Z,83.07
2022-09-07T11:22:35.016Z,82.93
2022-09-07T11:23:36.815Z,83.18
2022-09-07T11:24:34.986Z,83.14
2022-09-07T11:25:33.977Z,84.35
2022-09-07T11:26:33.964Z,84.89
2022-09-07T11:27:33.968Z,84.85
2022-09-07T11:28:33.940Z,84.85
2022-09-07T11:29:33.953Z,85.76
2022-09-07T11:30:34.050Z,86.13
2022-09-07T11:31:33.979Z,85.66
2022-09-07T11:32:33.898Z,86.73
2022-09-07T11:33:33.939Z,86.77
2022-09-07T11:34:33.919Z,86.57
2022-09-07T11:35:33.864Z,86.73
2022-09-07T11:36:33.857Z,85.52
2022-09-07T11:37:33.890Z,86.57
2022-09-07T11:38:33.832Z,87.13
2022-09-07T11:39:33.907Z,85.31
2022-09-07T11:40:33.883Z,85.62
2022-09-07T11:41:33.797Z,84.41
2022-09-07T11:42:49.297Z,84.21
2022-09-07T11:43:34.826Z,82.50
2022-09-07T11:44:33.777Z,82.09
2022-09-07T11:45:33.753Z,83.00
2022-09-07T11:46:33.818Z,83.66
2022-09-07T11:47:33.794Z,83.87
2022-09-07T11:48:34.148Z,84.61
2022-09-07T11:49:33.707Z,84.17
2022-09-07T11:50:33.789Z,83.97
2022-09-07T11:51:33.688Z,84.57
2022-09-07T11:52:33.676Z,84.61
2022-09-07T11:53:33.663Z,85.02
2022-09-07T11:54:33.655Z,83.46
2022-09-07T11:55:33.647Z,82.96
2022-09-07T11:56:36.261Z,81.75
2022-09-07T11:57:33.622Z,81.48
2022-09-07T11:58:33.610Z,82.39
2022-09-07T11:59:36.782Z,83.06
2022-09-07T12:00:33.589Z,82.45
2022-09-07T12:01:33.586Z,81.10
2022-09-07T12:02:57.811Z,81.21
2022-09-07T12:03:34.691Z,81.10
2022-09-07T12:04:33.573Z,80.26
2022-09-07T12:05:33.528Z,80.36
2022-09-07T12:06:33.549Z,83.14
2022-09-07T12:07:33.640Z,83.00
2022-09-07T12:08:33.503Z,84.43
2022-09-07T12:09:33.554Z,82.98
2022-09-07T12:10:33.490Z,79.47
2022-09-07T12:11:33.472Z,81.18
2022-09-07T12:12:33.457Z,78.16
2022-09-07T12:13:33.453Z,80.80
2022-09-07T12:14:33.648Z,77.92
2022-09-07T12:15:33.473Z,77.96
2022-09-07T12:16:33.422Z,75.42
2022-09-07T12:17:33.403Z,75.35
2022-09-07T12:18:33.419Z,77.36
2022-09-07T12:19:33.445Z,78.00
2022-09-07T12:20:33.365Z,78.03
2022-09-07T12:21:33.359Z,77.23
2022-09-07T12:22:33.385Z,78.03
2022-09-07T12:23:33.333Z,78.14
2022-09-07T12:24:33.343Z,76.79
2022-09-07T12:25:33.385Z,77.00
2022-09-07T12:26:33.302Z,77.96
2022-09-07T12:27:33.309Z,75.05
2022-09-07T12:28:33.451Z,75.45
2022-09-07T12:29:33.327Z,76.02
2022-09-07T12:30:33.260Z,73.17
2022-09-07T12:31:39.129Z,71.66
2022-09-07T12:33:34.221Z,71.66
2022-09-07T12:34:33.210Z,72.30
2022-09-07T12:35:33.215Z,72.06
2022-09-07T12:36:33.189Z,70.69
2022-09-07T12:37:33.177Z,73.30
2022-09-07T12:38:33.321Z,70.03
2022-09-07T12:39:33.255Z,75.00
2022-09-07T12:40:33.159Z,70.59
2022-09-07T12:41:33.137Z,71.43
2022-09-07T12:42:41.123Z,72.74
2022-09-07T12:43:34.118Z,72.97
2022-09-07T12:44:33.105Z,72.73
2022-09-07T12:45:33.102Z,72.86
2022-09-07T12:46:35.044Z,69.53
2022-09-07T12:47:33.068Z,71.73
2022-09-07T12:48:33.236Z,70.23
2022-09-07T12:49:33.134Z,71.43
2022-09-07T12:50:36.988Z,72.50
2022-09-07T12:52:34.016Z,72.63
2022-09-07T12:53:33.007Z,73.47
2022-09-07T12:54:33.032Z,73.54
2022-09-07T12:55:33.209Z,73.77
2022-09-07T12:56:32.985Z,75.48
2022-09-07T12:57:32.960Z,75.74
2022-09-07T12:58:33.171Z,73.64
2022-09-07T12:59:32.941Z,72.63
2022-09-07T13:00:32.981Z,72.33
2022-09-07T13:01:33.049Z,73.24
2022-09-07T13:02:33.079Z,71.43
2022-09-07T13:04:33.882Z,71.23
2022-09-07T13:05:32.921Z,72.77
2022-09-07T13:07:02.745Z,72.56
2022-09-07T13:07:34.030Z,73.33
2022-09-07T13:08:32.848Z,71.06
2022-09-07T13:09:32.846Z,73.03
2022-09-07T13:10:32.853Z,69.46
2022-09-07T13:11:32.807Z,69.99
2022-09-07T13:14:34.611Z,70.66
2022-09-07T13:15:32.843Z,71.06
2022-09-07T13:17:16.069Z,70.96
2022-09-07T13:17:33.789Z,72.87
2022-09-07T13:18:32.731Z,73.03
2022-09-07T13:19:32.719Z,72.13
2022-09-07T13:20:37.557Z,72.33
2022-09-07T13:21:33.700Z,73.03
2022-09-07T13:22:32.912Z,71.83
2022-09-07T13:23:32.791Z,73.44
2022-09-07T13:24:48.076Z,72.83
2022-09-07T13:25:33.705Z,74.18